sensor_id;sensor_type;location;lat;lon;timestamp;temperature;humidity
67196;DHT22;54122;53.538;49.366;2023-07-24T00:00:00;16.80;90.70
67196;DHT22;54122;53.538;49.366;2023-07-24T00:02:27;16.80;90.70
67196;DHT22;54122;53.538;49.366;2023-07-24T00:04:54;16.90;90.80
67196;DHT22;54122;53.538;49.366;2023-07-24T00:07:20;17.00;90.80
67196;DHT22;54122;53.538;49.366;2023-07-24T00:09:46;17.10;90.70
67196;DHT22;54122;53.538;49.366;2023-07-24T00:12:13;17.20;90.60
67196;DHT22;54122;53.538;49.366;2023-07-24T00:14:39;17.30;90.50
67196;DHT22;54122;53.538;49.366;2023-07-24T00:17:06;17.40;90.40
67196;DHT22;54122;53.538;49.366;2023-07-24T00:19:32;17.50;90.30
67196;DHT22;54122;53.538;49.366;2023-07-24T00:21:58;17.60;90.30
67196;DHT22;54122;53.538;49.366;2023-07-24T00:24:25;17.70;90.30
67196;DHT22;54122;53.538;49.366;2023-07-24T00:26:51;17.70;90.00
67196;DHT22;54122;53.538;49.366;2023-07-24T00:29:17;17.80;90.10
67196;DHT22;54122;53.538;49.366;2023-07-24T00:31:44;17.90;90.00
67196;DHT22;54122;53.538;49.366;2023-07-24T00:34:11;17.90;90.10
67196;DHT22;54122;53.538;49.366;2023-07-24T00:36:37;18.00;90.10
67196;DHT22;54122;53.538;49.366;2023-07-24T00:39:04;18.00;90.10
67196;DHT22;54122;53.538;49.366;2023-07-24T00:41:31;18.10;90.10
67196;DHT22;54122;53.538;49.366;2023-07-24T00:43:57;18.10;90.30
67196;DHT22;54122;53.538;49.366;2023-07-24T00:46:24;18.10;90.20
67196;DHT22;54122;53.538;49.366;2023-07-24T00:48:51;18.10;90.30
67196;DHT22;54122;53.538;49.366;2023-07-24T00:51:18;18.10;90.40
67196;DHT22;54122;53.538;49.366;2023-07-24T00:53:44;18.20;90.40
67196;DHT22;54122;53.538;49.366;2023-07-24T00:56:13;18.20;90.40
67196;DHT22;54122;53.538;49.366;2023-07-24T00:58:40;18.20;90.30
67196;DHT22;54122;53.538;49.366;2023-07-24T01:01:06;18.30;90.40
67196;DHT22;54122;53.538;49.366;2023-07-24T01:03:34;18.30;90.40
67196;DHT22;54122;53.538;49.366;2023-07-24T01:06:02;18.40;90.50
67196;DHT22;54122;53.538;49.366;2023-07-24T01:08:28;18.50;90.50
67196;DHT22;54122;53.538;49.366;2023-07-24T01:10:59;18.50;90.60
67196;DHT22;54122;53.538;49.366;2023-07-24T01:13:32;18.50;90.70
67196;DHT22;54122;53.538;49.366;2023-07-24T01:16:14;18.60;90.60
67196;DHT22;54122;53.538;49.366;2023-07-24T01:18:45;18.60;90.70
67196;DHT22;54122;53.538;49.366;2023-07-24T01:21:12;18.60;90.70
67196;DHT22;54122;53.538;49.366;2023-07-24T01:24:14;18.70;90.70
67196;DHT22;54122;53.538;49.366;2023-07-24T01:26:44;18.70;90.60
67196;DHT22;54122;53.538;49.366;2023-07-24T01:29:11;18.70;90.60
67196;DHT22;54122;53.538;49.366;2023-07-24T01:31:37;18.80;90.70
67196;DHT22;54122;53.538;49.366;2023-07-24T01:34:04;18.80;90.70
67196;DHT22;54122;53.538;49.366;2023-07-24T01:36:30;18.90;90.70
67196;DHT22;54122;53.538;49.366;2023-07-24T01:38:57;18.90;90.60
67196;DHT22;54122;53.538;49.366;2023-07-24T01:41:24;18.90;90.60
67196;DHT22;54122;53.538;49.366;2023-07-24T01:43:50;19.00;90.50
67196;DHT22;54122;53.538;49.366;2023-07-24T01:46:17;19.00;90.50
67196;DHT22;54122;53.538;49.366;2023-07-24T01:48:43;19.00;90.40
67196;DHT22;54122;53.538;49.366;2023-07-24T01:51:10;19.00;90.50
67196;DHT22;54122;53.538;49.366;2023-07-24T01:53:36;19.10;90.50
67196;DHT22;54122;53.538;49.366;2023-07-24T01:56:02;19.10;90.50
67196;DHT22;54122;53.538;49.366;2023-07-24T01:58:29;19.10;90.50
67196;DHT22;54122;53.538;49.366;2023-07-24T02:00:55;19.20;90.50
67196;DHT22;54122;53.538;49.366;2023-07-24T02:03:22;19.20;90.50
67196;DHT22;54122;53.538;49.366;2023-07-24T02:05:51;19.20;90.40
67196;DHT22;54122;53.538;49.366;2023-07-24T02:08:18;19.30;90.40
67196;DHT22;54122;53.538;49.366;2023-07-24T02:10:47;19.30;90.30
67196;DHT22;54122;53.538;49.366;2023-07-24T02:13:14;19.40;90.30
67196;DHT22;54122;53.538;49.366;2023-07-24T02:15:40;19.40;90.30
67196;DHT22;54122;53.538;49.366;2023-07-24T02:18:07;19.40;90.20
67196;DHT22;54122;53.538;49.366;2023-07-24T02:20:33;19.40;90.10
67196;DHT22;54122;53.538;49.366;2023-07-24T02:22:59;19.50;90.10
67196;DHT22;54122;53.538;49.366;2023-07-24T02:25:26;19.50;90.10
67196;DHT22;54122;53.538;49.366;2023-07-24T02:27:52;19.60;90.00
67196;DHT22;54122;53.538;49.366;2023-07-24T02:30:18;19.60;90.00
67196;DHT22;54122;53.538;49.366;2023-07-24T02:32:45;19.70;89.90
67196;DHT22;54122;53.538;49.366;2023-07-24T02:35:14;19.70;89.60
67196;DHT22;54122;53.538;49.366;2023-07-24T02:37:40;19.70;89.40
67196;DHT22;54122;53.538;49.366;2023-07-24T02:40:07;19.80;89.20
67196;DHT22;54122;53.538;49.366;2023-07-24T02:42:34;19.80;89.00
67196;DHT22;54122;53.538;49.366;2023-07-24T02:45:00;19.80;88.80
67196;DHT22;54122;53.538;49.366;2023-07-24T02:47:26;19.90;88.60
67196;DHT22;54122;53.538;49.366;2023-07-24T02:49:53;20.00;88.50
67196;DHT22;54122;53.538;49.366;2023-07-24T02:52:19;20.10;88.10
67196;DHT22;54122;53.538;49.366;2023-07-24T02:54:46;20.20;87.50
67196;DHT22;54122;53.538;49.366;2023-07-24T02:57:12;20.30;86.80
67196;DHT22;54122;53.538;49.366;2023-07-24T02:59:38;20.50;86.30
67196;DHT22;54122;53.538;49.366;2023-07-24T03:02:05;20.60;85.50
67196;DHT22;54122;53.538;49.366;2023-07-24T03:04:31;20.80;84.90
67196;DHT22;54122;53.538;49.366;2023-07-24T03:06:58;21.00;84.00
67196;DHT22;54122;53.538;49.366;2023-07-24T03:09:24;21.20;83.00
67196;DHT22;54122;53.538;49.366;2023-07-24T03:11:50;21.40;81.80
67196;DHT22;54122;53.538;49.366;2023-07-24T03:14:17;21.50;80.90
67196;DHT22;54122;53.538;49.366;2023-07-24T03:16:43;21.60;80.20
67196;DHT22;54122;53.538;49.366;2023-07-24T03:19:09;21.60;79.90
67196;DHT22;54122;53.538;49.366;2023-07-24T03:21:36;21.60;80.00
67196;DHT22;54122;53.538;49.366;2023-07-24T03:24:02;21.50;80.00
67196;DHT22;54122;53.538;49.366;2023-07-24T03:26:29;21.40;79.90
67196;DHT22;54122;53.538;49.366;2023-07-24T03:28:55;21.40;80.00
67196;DHT22;54122;53.538;49.366;2023-07-24T03:31:22;21.50;79.90
67196;DHT22;54122;53.538;49.366;2023-07-24T03:33:48;21.50;79.70
67196;DHT22;54122;53.538;49.366;2023-07-24T03:36:15;21.60;79.20
67196;DHT22;54122;53.538;49.366;2023-07-24T03:38:41;21.70;78.60
67196;DHT22;54122;53.538;49.366;2023-07-24T03:41:07;21.80;78.10
67196;DHT22;54122;53.538;49.366;2023-07-24T03:43:34;21.80;77.90
67196;DHT22;54122;53.538;49.366;2023-07-24T03:46:00;21.90;77.80
67196;DHT22;54122;53.538;49.366;2023-07-24T03:48:27;22.00;77.40
67196;DHT22;54122;53.538;49.366;2023-07-24T03:51:00;22.00;77.20
67196;DHT22;54122;53.538;49.366;2023-07-24T03:53:27;22.20;76.90
67196;DHT22;54122;53.538;49.366;2023-07-24T03:55:54;22.30;76.30
67196;DHT22;54122;53.538;49.366;2023-07-24T03:58:20;22.40;76.00
67196;DHT22;54122;53.538;49.366;2023-07-24T04:00:46;22.60;75.60
67196;DHT22;54122;53.538;49.366;2023-07-24T04:03:13;22.70;74.80
67196;DHT22;54122;53.538;49.366;2023-07-24T04:05:39;22.90;74.00
67196;DHT22;54122;53.538;49.366;2023-07-24T04:08:06;22.90;73.20
67196;DHT22;54122;53.538;49.366;2023-07-24T04:10:32;23.00;72.90
67196;DHT22;54122;53.538;49.366;2023-07-24T04:12:59;23.00;72.20
67196;DHT22;54122;53.538;49.366;2023-07-24T04:15:25;23.00;72.10
67196;DHT22;54122;53.538;49.366;2023-07-24T04:17:51;23.10;71.70
67196;DHT22;54122;53.538;49.366;2023-07-24T04:20:18;23.10;71.10
67196;DHT22;54122;53.538;49.366;2023-07-24T04:22:44;23.20;70.90
67196;DHT22;54122;53.538;49.366;2023-07-24T04:25:10;23.40;70.50
67196;DHT22;54122;53.538;49.366;2023-07-24T04:27:37;23.60;69.90
67196;DHT22;54122;53.538;49.366;2023-07-24T04:30:04;23.80;68.90
67196;DHT22;54122;53.538;49.366;2023-07-24T04:32:31;24.30;68.00
67196;DHT22;54122;53.538;49.366;2023-07-24T04:34:57;25.00;66.00
67196;DHT22;54122;53.538;49.366;2023-07-24T04:37:24;25.30;64.70
67196;DHT22;54122;53.538;49.366;2023-07-24T04:39:50;25.90;63.30
67196;DHT22;54122;53.538;49.366;2023-07-24T04:42:16;26.30;61.20
67196;DHT22;54122;53.538;49.366;2023-07-24T04:44:43;26.10;60.90
67196;DHT22;54122;53.538;49.366;2023-07-24T04:47:09;25.90;61.70
67196;DHT22;54122;53.538;49.366;2023-07-24T04:49:36;26.20;61.90
67196;DHT22;54122;53.538;49.366;2023-07-24T04:52:03;27.10;60.10
67196;DHT22;54122;53.538;49.366;2023-07-24T04:54:30;27.50;57.10
67196;DHT22;54122;53.538;49.366;2023-07-24T04:56:56;27.30;56.50
67196;DHT22;54122;53.538;49.366;2023-07-24T04:59:23;26.80;57.10
67196;DHT22;54122;53.538;49.366;2023-07-24T05:01:50;26.30;58.70
67196;DHT22;54122;53.538;49.366;2023-07-24T05:04:16;26.40;59.20
67196;DHT22;54122;53.538;49.366;2023-07-24T05:06:43;26.40;58.70
67196;DHT22;54122;53.538;49.366;2023-07-24T05:09:09;26.50;58.70
67196;DHT22;54122;53.538;49.366;2023-07-24T05:11:36;27.00;57.70
67196;DHT22;54122;53.538;49.366;2023-07-24T05:14:02;28.10;54.50
67196;DHT22;54122;53.538;49.366;2023-07-24T05:16:28;28.80;51.30
67196;DHT22;54122;53.538;49.366;2023-07-24T05:18:55;28.80;50.70
67196;DHT22;54122;53.538;49.366;2023-07-24T05:21:21;29.10;50.10
67196;DHT22;54122;53.538;49.366;2023-07-24T05:23:48;29.70;48.90
67196;DHT22;54122;53.538;49.366;2023-07-24T05:26:14;30.10;47.70
67196;DHT22;54122;53.538;49.366;2023-07-24T05:28:41;30.20;46.60
67196;DHT22;54122;53.538;49.366;2023-07-24T05:31:07;30.00;46.60
67196;DHT22;54122;53.538;49.366;2023-07-24T05:33:34;29.80;47.60
67196;DHT22;54122;53.538;49.366;2023-07-24T05:36:02;29.80;47.30
67196;DHT22;54122;53.538;49.366;2023-07-24T05:38:29;29.80;46.60
67196;DHT22;54122;53.538;49.366;2023-07-24T05:41:00;29.50;45.90
67196;DHT22;54122;53.538;49.366;2023-07-24T05:43:27;28.90;47.00
67196;DHT22;54122;53.538;49.366;2023-07-24T05:45:55;28.80;47.70
67196;DHT22;54122;53.538;49.366;2023-07-24T05:48:23;29.00;47.40
67196;DHT22;54122;53.538;49.366;2023-07-24T05:50:49;29.40;46.50
67196;DHT22;54122;53.538;49.366;2023-07-24T05:53:16;29.90;44.50
67196;DHT22;54122;53.538;49.366;2023-07-24T05:55:43;31.00;43.00
67196;DHT22;54122;53.538;49.366;2023-07-24T05:58:10;32.70;39.70
67196;DHT22;54122;53.538;49.366;2023-07-24T06:00:37;33.80;37.20
67196;DHT22;54122;53.538;49.366;2023-07-24T06:03:04;34.40;35.70
67196;DHT22;54122;53.538;49.366;2023-07-24T06:05:30;34.50;34.60
67196;DHT22;54122;53.538;49.366;2023-07-24T06:07:57;34.30;34.90
67196;DHT22;54122;53.538;49.366;2023-07-24T06:10:23;34.20;35.40
67196;DHT22;54122;53.538;49.366;2023-07-24T06:12:49;34.10;35.60
67196;DHT22;54122;53.538;49.366;2023-07-24T06:15:16;34.30;34.40
67196;DHT22;54122;53.538;49.366;2023-07-24T06:17:42;34.50;34.20
67196;DHT22;54122;53.538;49.366;2023-07-24T06:20:09;34.40;34.40
67196;DHT22;54122;53.538;49.366;2023-07-24T06:22:35;34.30;34.40
67196;DHT22;54122;53.538;49.366;2023-07-24T06:25:02;34.20;33.70
67196;DHT22;54122;53.538;49.366;2023-07-24T06:27:28;34.10;34.60
67196;DHT22;54122;53.538;49.366;2023-07-24T06:29:55;34.00;34.10
67196;DHT22;54122;53.538;49.366;2023-07-24T06:32:21;34.00;34.20
67196;DHT22;54122;53.538;49.366;2023-07-24T06:34:48;34.10;34.20
67196;DHT22;54122;53.538;49.366;2023-07-24T06:37:14;34.00;34.60
67196;DHT22;54122;53.538;49.366;2023-07-24T06:39:40;34.20;34.40
67196;DHT22;54122;53.538;49.366;2023-07-24T06:42:08;34.90;33.20
67196;DHT22;54122;53.538;49.366;2023-07-24T06:44:34;35.60;32.40
67196;DHT22;54122;53.538;49.366;2023-07-24T06:47:01;35.50;32.50
67196;DHT22;54122;53.538;49.366;2023-07-24T06:49:27;35.20;31.90
67196;DHT22;54122;53.538;49.366;2023-07-24T06:51:53;34.60;32.40
67196;DHT22;54122;53.538;49.366;2023-07-24T06:54:20;34.30;32.90
67196;DHT22;54122;53.538;49.366;2023-07-24T06:56:46;34.20;33.10
67196;DHT22;54122;53.538;49.366;2023-07-24T06:59:12;34.30;33.10
67196;DHT22;54122;53.538;49.366;2023-07-24T07:01:39;34.60;33.00
67196;DHT22;54122;53.538;49.366;2023-07-24T07:04:05;34.80;32.70
67196;DHT22;54122;53.538;49.366;2023-07-24T07:06:32;35.00;32.30
67196;DHT22;54122;53.538;49.366;2023-07-24T07:08:58;34.80;31.30
67196;DHT22;54122;53.538;49.366;2023-07-24T07:11:24;34.00;32.40
67196;DHT22;54122;53.538;49.366;2023-07-24T07:13:51;33.50;32.50
67196;DHT22;54122;53.538;49.366;2023-07-24T07:16:17;32.70;34.20
67196;DHT22;54122;53.538;49.366;2023-07-24T07:18:45;32.90;34.30
67196;DHT22;54122;53.538;49.366;2023-07-24T07:21:11;33.00;33.60
67196;DHT22;54122;53.538;49.366;2023-07-24T07:23:38;33.30;33.80
67196;DHT22;54122;53.538;49.366;2023-07-24T07:26:04;33.30;33.00
67196;DHT22;54122;53.538;49.366;2023-07-24T07:28:30;33.10;33.40
67196;DHT22;54122;53.538;49.366;2023-07-24T07:30:57;33.20;33.30
67196;DHT22;54122;53.538;49.366;2023-07-24T07:33:23;33.40;33.30
67196;DHT22;54122;53.538;49.366;2023-07-24T07:35:50;33.50;32.20
67196;DHT22;54122;53.538;49.366;2023-07-24T07:38:17;33.70;32.60
67196;DHT22;54122;53.538;49.366;2023-07-24T07:40:43;34.10;31.60
67196;DHT22;54122;53.538;49.366;2023-07-24T07:43:10;33.80;31.90
67196;DHT22;54122;53.538;49.366;2023-07-24T07:45:36;33.80;31.60
67196;DHT22;54122;53.538;49.366;2023-07-24T07:48:03;34.20;31.60
67196;DHT22;54122;53.538;49.366;2023-07-24T07:50:29;34.50;30.90
67196;DHT22;54122;53.538;49.366;2023-07-24T07:52:56;34.80;30.50
67196;DHT22;54122;53.538;49.366;2023-07-24T07:55:22;35.10;30.10
67196;DHT22;54122;53.538;49.366;2023-07-24T07:57:49;35.20;29.20
67196;DHT22;54122;53.538;49.366;2023-07-24T08:00:15;34.90;29.40
67196;DHT22;54122;53.538;49.366;2023-07-24T08:02:42;35.00;29.30
67196;DHT22;54122;53.538;49.366;2023-07-24T08:05:09;35.00;29.40
67196;DHT22;54122;53.538;49.366;2023-07-24T08:07:36;35.00;29.10
67196;DHT22;54122;53.538;49.366;2023-07-24T08:10:03;35.10;28.30
67196;DHT22;54122;53.538;49.366;2023-07-24T08:12:31;35.00;28.30
67196;DHT22;54122;53.538;49.366;2023-07-24T08:14:57;34.70;28.80
67196;DHT22;54122;53.538;49.366;2023-07-24T08:17:24;34.40;29.20
67196;DHT22;54122;53.538;49.366;2023-07-24T08:19:50;33.50;30.60
67196;DHT22;54122;53.538;49.366;2023-07-24T08:22:17;32.80;32.30
67196;DHT22;54122;53.538;49.366;2023-07-24T08:24:45;32.50;33.40
67196;DHT22;54122;53.538;49.366;2023-07-24T08:27:13;33.20;32.70
67196;DHT22;54122;53.538;49.366;2023-07-24T08:29:39;34.00;31.40
67196;DHT22;54122;53.538;49.366;2023-07-24T08:32:06;34.60;30.60
67196;DHT22;54122;53.538;49.366;2023-07-24T08:34:32;35.20;30.00
67196;DHT22;54122;53.538;49.366;2023-07-24T08:36:59;35.70;29.10
67196;DHT22;54122;53.538;49.366;2023-07-24T08:39:25;35.40;28.80
67196;DHT22;54122;53.538;49.366;2023-07-24T08:41:52;35.20;28.70
67196;DHT22;54122;53.538;49.366;2023-07-24T08:44:18;34.70;29.20
67196;DHT22;54122;53.538;49.366;2023-07-24T08:46:47;34.10;29.90
67196;DHT22;54122;53.538;49.366;2023-07-24T08:49:16;33.70;31.20
67196;DHT22;54122;53.538;49.366;2023-07-24T08:51:44;33.50;31.90
67196;DHT22;54122;53.538;49.366;2023-07-24T08:54:12;33.20;32.40
67196;DHT22;54122;53.538;49.366;2023-07-24T08:56:39;32.80;32.90
67196;DHT22;54122;53.538;49.366;2023-07-24T08:59:06;32.10;33.20
67196;DHT22;54122;53.538;49.366;2023-07-24T09:01:32;31.50;34.40
67196;DHT22;54122;53.538;49.366;2023-07-24T09:03:59;31.20;35.20
67196;DHT22;54122;53.538;49.366;2023-07-24T09:06:26;31.60;35.30
67196;DHT22;54122;53.538;49.366;2023-07-24T09:08:54;31.60;34.50
67196;DHT22;54122;53.538;49.366;2023-07-24T09:11:20;32.00;34.40
67196;DHT22;54122;53.538;49.366;2023-07-24T09:13:47;32.50;33.20
67196;DHT22;54122;53.538;49.366;2023-07-24T09:16:24;32.30;32.50
67196;DHT22;54122;53.538;49.366;2023-07-24T09:18:51;32.10;33.50
67196;DHT22;54122;53.538;49.366;2023-07-24T09:21:29;31.70;34.00
67196;DHT22;54122;53.538;49.366;2023-07-24T09:23:56;31.30;34.90
67196;DHT22;54122;53.538;49.366;2023-07-24T09:26:23;30.90;35.60
67196;DHT22;54122;53.538;49.366;2023-07-24T09:28:53;30.60;36.20
67196;DHT22;54122;53.538;49.366;2023-07-24T09:31:20;30.10;37.30
67196;DHT22;54122;53.538;49.366;2023-07-24T09:33:47;29.80;38.40
67196;DHT22;54122;53.538;49.366;2023-07-24T09:36:13;29.80;38.60
67196;DHT22;54122;53.538;49.366;2023-07-24T09:38:40;29.60;39.70
67196;DHT22;54122;53.538;49.366;2023-07-24T09:41:07;29.30;39.10
67196;DHT22;54122;53.538;49.366;2023-07-24T09:43:34;29.20;39.00
67196;DHT22;54122;53.538;49.366;2023-07-24T09:46:04;29.40;40.10
67196;DHT22;54122;53.538;49.366;2023-07-24T09:48:32;29.70;38.70
67196;DHT22;54122;53.538;49.366;2023-07-24T09:50:59;30.00;38.90
67196;DHT22;54122;53.538;49.366;2023-07-24T09:56:14;30.30;36.80
67196;DHT22;54122;53.538;49.366;2023-07-24T09:58:44;30.10;36.40
67196;DHT22;54122;53.538;49.366;2023-07-24T10:01:11;29.80;37.10
67196;DHT22;54122;53.538;49.366;2023-07-24T10:03:50;29.60;37.80
67196;DHT22;54122;53.538;49.366;2023-07-24T10:06:17;29.50;37.60
67196;DHT22;54122;53.538;49.366;2023-07-24T10:08:43;29.40;37.80
67196;DHT22;54122;53.538;49.366;2023-07-24T10:11:14;29.50;37.60
67196;DHT22;54122;53.538;49.366;2023-07-24T10:13:41;29.60;37.90
67196;DHT22;54122;53.538;49.366;2023-07-24T10:16:08;29.60;38.10
67196;DHT22;54122;53.538;49.366;2023-07-24T10:18:45;29.70;37.90
67196;DHT22;54122;53.538;49.366;2023-07-24T10:21:12;29.80;37.10
67196;DHT22;54122;53.538;49.366;2023-07-24T10:23:44;29.70;37.30
67196;DHT22;54122;53.538;49.366;2023-07-24T10:26:10;29.70;37.70
67196;DHT22;54122;53.538;49.366;2023-07-24T10:28:38;29.70;37.50
67196;DHT22;54122;53.538;49.366;2023-07-24T10:31:07;29.60;37.60
67196;DHT22;54122;53.538;49.366;2023-07-24T10:33:43;29.40;37.90
67196;DHT22;54122;53.538;49.366;2023-07-24T10:36:10;29.20;38.20
67196;DHT22;54122;53.538;49.366;2023-07-24T10:38:41;29.40;38.60
67196;DHT22;54122;53.538;49.366;2023-07-24T10:41:09;29.90;37.60
67196;DHT22;54122;53.538;49.366;2023-07-24T10:43:50;30.10;36.70
67196;DHT22;54122;53.538;49.366;2023-07-24T10:46:18;29.90;36.60
67196;DHT22;54122;53.538;49.366;2023-07-24T10:48:46;29.70;36.90
67196;DHT22;54122;53.538;49.366;2023-07-24T10:51:13;29.70;37.10
67196;DHT22;54122;53.538;49.366;2023-07-24T10:53:48;29.20;38.60
67196;DHT22;54122;53.538;49.366;2023-07-24T10:56:16;28.60;42.30
67196;DHT22;54122;53.538;49.366;2023-07-24T10:58:43;27.90;45.40
67196;DHT22;54122;53.538;49.366;2023-07-24T11:01:09;27.30;48.10
67196;DHT22;54122;53.538;49.366;2023-07-24T11:03:41;26.10;51.80
67196;DHT22;54122;53.538;49.366;2023-07-24T11:06:19;25.00;56.30
67196;DHT22;54122;53.538;49.366;2023-07-24T11:08:56;24.70;58.50
67196;DHT22;54122;53.538;49.366;2023-07-24T11:11:33;24.90;60.70
67196;DHT22;54122;53.538;49.366;2023-07-24T11:14:01;25.50;60.60
67196;DHT22;54122;53.538;49.366;2023-07-24T11:16:28;26.30;59.30
67196;DHT22;54122;53.538;49.366;2023-07-24T11:18:57;27.00;58.00
67196;DHT22;54122;53.538;49.366;2023-07-24T11:21:23;27.50;54.70
67196;DHT22;54122;53.538;49.366;2023-07-24T11:23:52;27.60;53.00
67196;DHT22;54122;53.538;49.366;2023-07-24T11:26:23;27.50;52.50
67196;DHT22;54122;53.538;49.366;2023-07-24T11:28:50;27.50;51.70
67196;DHT22;54122;53.538;49.366;2023-07-24T11:31:17;27.40;50.50
67196;DHT22;54122;53.538;49.366;2023-07-24T11:33:50;27.50;49.60
67196;DHT22;54122;53.538;49.366;2023-07-24T11:36:18;27.70;47.80
67196;DHT22;54122;53.538;49.366;2023-07-24T11:38:46;27.80;48.00
67196;DHT22;54122;53.538;49.366;2023-07-24T11:41:12;27.90;47.60
67196;DHT22;54122;53.538;49.366;2023-07-24T11:43:46;28.10;46.40
67196;DHT22;54122;53.538;49.366;2023-07-24T11:46:25;28.20;46.00
67196;DHT22;54122;53.538;49.366;2023-07-24T11:48:53;28.30;45.40
67196;DHT22;54122;53.538;49.366;2023-07-24T11:51:22;28.30;44.60
67196;DHT22;54122;53.538;49.366;2023-07-24T11:53:50;28.40;44.20
67196;DHT22;54122;53.538;49.366;2023-07-24T11:56:18;28.50;44.00
67196;DHT22;54122;53.538;49.366;2023-07-24T11:58:45;28.50;43.70
67196;DHT22;54122;53.538;49.366;2023-07-24T12:01:14;28.50;43.60
67196;DHT22;54122;53.538;49.366;2023-07-24T12:03:42;28.40;43.40
67196;DHT22;54122;53.538;49.366;2023-07-24T12:06:16;28.50;42.70
67196;DHT22;54122;53.538;49.366;2023-07-24T12:08:43;28.50;42.10
67196;DHT22;54122;53.538;49.366;2023-07-24T12:11:17;28.30;42.10
67196;DHT22;54122;53.538;49.366;2023-07-24T12:13:46;28.10;42.40
67196;DHT22;54122;53.538;49.366;2023-07-24T12:16:12;28.10;42.50
67196;DHT22;54122;53.538;49.366;2023-07-24T12:18:39;28.00;41.90
67196;DHT22;54122;53.538;49.366;2023-07-24T12:21:05;27.80;42.40
67196;DHT22;54122;53.538;49.366;2023-07-24T12:23:32;27.80;42.60
67196;DHT22;54122;53.538;49.366;2023-07-24T12:25:58;27.70;42.60
67196;DHT22;54122;53.538;49.366;2023-07-24T12:28:25;27.70;42.80
67196;DHT22;54122;53.538;49.366;2023-07-24T12:30:51;27.70;42.70
67196;DHT22;54122;53.538;49.366;2023-07-24T12:33:17;27.70;42.90
67196;DHT22;54122;53.538;49.366;2023-07-24T12:35:44;28.00;42.80
67196;DHT22;54122;53.538;49.366;2023-07-24T12:38:11;28.20;41.50
67196;DHT22;54122;53.538;49.366;2023-07-24T12:40:37;28.40;41.60
67196;DHT22;54122;53.538;49.366;2023-07-24T12:43:04;28.50;41.20
67196;DHT22;54122;53.538;49.366;2023-07-24T12:45:30;28.50;40.60
67196;DHT22;54122;53.538;49.366;2023-07-24T12:47:56;28.30;40.30
67196;DHT22;54122;53.538;49.366;2023-07-24T12:50:23;28.20;40.70
67196;DHT22;54122;53.538;49.366;2023-07-24T12:52:50;28.00;40.60
67196;DHT22;54122;53.538;49.366;2023-07-24T12:55:17;27.90;40.50
67196;DHT22;54122;53.538;49.366;2023-07-24T12:57:44;27.90;40.50
67196;DHT22;54122;53.538;49.366;2023-07-24T13:00:10;28.00;40.20
67196;DHT22;54122;53.538;49.366;2023-07-24T13:02:38;28.00;39.50
67196;DHT22;54122;53.538;49.366;2023-07-24T13:05:05;28.00;39.50
67196;DHT22;54122;53.538;49.366;2023-07-24T13:07:31;27.90;39.00
67196;DHT22;54122;53.538;49.366;2023-07-24T13:09:57;27.50;41.10
67196;DHT22;54122;53.538;49.366;2023-07-24T13:12:24;27.10;42.80
67196;DHT22;54122;53.538;49.366;2023-07-24T13:14:50;26.70;44.30
67196;DHT22;54122;53.538;49.366;2023-07-24T13:17:17;26.50;45.50
67196;DHT22;54122;53.538;49.366;2023-07-24T13:19:43;26.30;46.20
67196;DHT22;54122;53.538;49.366;2023-07-24T13:22:09;26.10;47.30
67196;DHT22;54122;53.538;49.366;2023-07-24T13:24:36;25.90;48.10
67196;DHT22;54122;53.538;49.366;2023-07-24T13:27:02;25.80;48.70
67196;DHT22;54122;53.538;49.366;2023-07-24T13:29:30;25.70;49.10
67196;DHT22;54122;53.538;49.366;2023-07-24T13:31:57;25.70;49.70
67196;DHT22;54122;53.538;49.366;2023-07-24T13:34:24;25.60;50.20
67196;DHT22;54122;53.538;49.366;2023-07-24T13:36:52;25.50;50.90
67196;DHT22;54122;53.538;49.366;2023-07-24T13:39:18;25.40;51.60
67196;DHT22;54122;53.538;49.366;2023-07-24T13:41:45;25.30;52.00
67196;DHT22;54122;53.538;49.366;2023-07-24T13:44:11;25.20;52.40
67196;DHT22;54122;53.538;49.366;2023-07-24T13:46:38;25.30;52.80
67196;DHT22;54122;53.538;49.366;2023-07-24T13:49:05;25.30;52.90
67196;DHT22;54122;53.538;49.366;2023-07-24T13:51:31;25.30;53.30
67196;DHT22;54122;53.538;49.366;2023-07-24T13:53:58;25.40;53.30
67196;DHT22;54122;53.538;49.366;2023-07-24T13:56:25;25.50;53.30
67196;DHT22;54122;53.538;49.366;2023-07-24T13:58:53;25.70;52.90
67196;DHT22;54122;53.538;49.366;2023-07-24T14:01:20;25.80;52.80
67196;DHT22;54122;53.538;49.366;2023-07-24T14:03:46;25.80;52.00
67196;DHT22;54122;53.538;49.366;2023-07-24T14:06:13;25.90;51.60
67196;DHT22;54122;53.538;49.366;2023-07-24T14:08:39;25.90;51.60
67196;DHT22;54122;53.538;49.366;2023-07-24T14:11:06;25.80;51.50
67196;DHT22;54122;53.538;49.366;2023-07-24T14:13:32;25.90;51.50
67196;DHT22;54122;53.538;49.366;2023-07-24T14:15:58;25.80;52.90
67196;DHT22;54122;53.538;49.366;2023-07-24T14:18:25;25.70;51.90
67196;DHT22;54122;53.538;49.366;2023-07-24T14:20:52;25.70;52.00
67196;DHT22;54122;53.538;49.366;2023-07-24T14:23:20;25.80;51.70
67196;DHT22;54122;53.538;49.366;2023-07-24T14:25:47;25.70;51.40
67196;DHT22;54122;53.538;49.366;2023-07-24T14:28:14;25.80;51.00
67196;DHT22;54122;53.538;49.366;2023-07-24T14:30:41;25.80;50.70
67196;DHT22;54122;53.538;49.366;2023-07-24T14:33:08;25.80;50.50
67196;DHT22;54122;53.538;49.366;2023-07-24T14:35:35;25.90;50.30
67196;DHT22;54122;53.538;49.366;2023-07-24T14:38:01;26.00;50.20
67196;DHT22;54122;53.538;49.366;2023-07-24T14:40:28;26.10;50.10
67196;DHT22;54122;53.538;49.366;2023-07-24T14:42:54;26.10;49.80
67196;DHT22;54122;53.538;49.366;2023-07-24T14:45:21;26.20;49.50
67196;DHT22;54122;53.538;49.366;2023-07-24T14:47:47;26.20;49.10
67196;DHT22;54122;53.538;49.366;2023-07-24T14:50:14;26.20;48.90
67196;DHT22;54122;53.538;49.366;2023-07-24T14:52:41;26.10;48.80
67196;DHT22;54122;53.538;49.366;2023-07-24T14:55:08;26.10;49.00
67196;DHT22;54122;53.538;49.366;2023-07-24T14:57:35;25.90;49.30
67196;DHT22;54122;53.538;49.366;2023-07-24T15:00:02;25.70;50.10
67196;DHT22;54122;53.538;49.366;2023-07-24T15:02:29;25.50;51.00
67196;DHT22;54122;53.538;49.366;2023-07-24T15:04:58;25.20;51.80
67196;DHT22;54122;53.538;49.366;2023-07-24T15:07:25;25.10;52.70
67196;DHT22;54122;53.538;49.366;2023-07-24T15:09:51;24.90;53.70
67196;DHT22;54122;53.538;49.366;2023-07-24T15:12:18;24.70;54.70
67196;DHT22;54122;53.538;49.366;2023-07-24T15:14:45;24.60;55.40
67196;DHT22;54122;53.538;49.366;2023-07-24T15:17:11;24.50;55.90